Airfield :
LOGIN :

Register | Disclaimer

   EN    FR    IT 

 










Legend :    VFR   Marginal VFR   IFR   Intensive IFR   Very Intensive IFR
Visi :
Ceiling :
>= 8 km
>= 3000ft
5 to 8 km
1000 to 3000 ft
1500m to 5 km
500 to 1000 ft
800 to 1500m
200 to 500 ft
< 800m
< 200 ft
Symbols :   Thunderstorms  Fog  Heavy snow  Heavy precipitations  Wind > 20 kt
SIGMETs :     Misc.  Thunderstorms  Icing  Turbulence  Mountain Waves  Volcanic Ashes







- Airport Elevation : 156 ft
- IATA code : LCC


LIBN - Lecce Galatine (military)

CURRENT METAR :
  • 222255Z 13015KT 9999 SCT030 15/12 Q1013 RMK OVC BKN090 VIS MIN 9999 WIND THR14 13018KT WIND THR32 13016KT BLU

EXPIRED METARs :
  • 222155Z 14014KT 9999 SCT030 15/12 Q1014 RMK OVC BKN090 VIS MIN 9999 WIND THR14 14014KT WIND THR32 14015KT BLU
  • 222055Z 15010KT 9999 -RA SCT030 14/13 Q1015 RMK OVC BKN090 VIS MIN 9999 WIND THR14 16011KT WIND THR32 15010KT BLU

Expired Forecast.
No reported NOTAMs for that airfield.
1 SIGMET reported for the Brindisi FIR (LIBB) :
 
Severe turbulence
LIBB SIGMET 4 VALID 222005/230005 LIIB
LIBB BRINDISI FIR SEV TURB FCST WI N4252 E01529 - N4157 E01357 - N4125 E01427 - N4111 E01507 - N3912 E01621 - N4035 E01859 - N4106 E01850 - N4252 E01529 SFC/FL120 STNR NC=



MET'MAP, your aeronautical weather chart ! - Copyright ORBIFLY December 2007 - Disclaimer

ORBIFLY MET'MAP TEAM :

Programming & Development : Alexandra Zaïnal
Concept & Development : Baudouin d'Aumeries
Co-Development & Prog : Marc-Olivier Méhu
Technical & hardware support : Manuel Goepfert

Contact : metmap@orbifly.com




SOURCES & CREDITS :

   NOAA